Time;durP1;ratioP1;P1;durP2;ratioP2;P2;SDS_P1;SDS_P2;PMS_P1;PMS_P2;Temp;Humidity;BMP_temperature;BMP_pressure;BME280_temperature;BME280_humidity;BME280_pressure;Samples;Min_cycle;Max_cycle;Signal;HPM_P1;HPM_P2
2023/07/04 00:01:48;;;;;;;45.22;11.48;;;;;;;12.62;100.00;100960.69;5052476;28;20025;-49
2023/07/04 00:04:20;;;;;;;44.53;11.38;;;;;;;12.56;100.00;100966.56;5052201;28;20116;-47
2023/07/04 00:06:50;;;;;;;51.80;12.23;;;;;;;12.47;100.00;100962.09;5052733;28;20025;-48
2023/07/04 00:09:17;;;;;;;46.85;10.98;;;;;;;12.45;100.00;100963.75;5052842;28;20024;-48
2023/07/04 00:11:42;;;;;;;48.28;11.40;;;;;;;12.44;100.00;100961.13;5051761;28;20024;-47
2023/07/04 00:14:07;;;;;;;47.00;10.75;;;;;;;12.28;100.00;100958.19;5052604;28;20032;-48
2023/07/04 00:16:33;;;;;;;50.58;12.05;;;;;;;12.25;100.00;100955.53;5052377;28;20029;-47
2023/07/04 00:18:58;;;;;;;47.83;12.82;;;;;;;12.19;100.00;100953.66;5052190;28;20095;-49
2023/07/04 00:21:24;;;;;;;48.85;11.60;;;;;;;12.21;100.00;100955.41;5052398;28;20125;-46
2023/07/04 00:23:52;;;;;;;55.05;12.27;;;;;;;12.10;100.00;100950.84;5052535;28;20175;-48
2023/07/04 00:26:18;;;;;;;;;;;;;;;12.21;100.00;100955.41;5052477;28;20071;-49
2023/07/04 00:28:45;;;;;;;39.92;11.57;;;;;;;11.98;100.00;100946.25;5052192;28;19912;-48
2023/07/04 00:31:14;;;;;;;51.03;11.63;;;;;;;11.73;100.00;100952.44;5052016;28;20052;-43
2023/07/04 00:33:40;;;;;;;42.85;11.00;;;;;;;11.71;100.00;100951.53;5056409;28;20028;-48
2023/07/04 00:36:09;;;;;;;52.58;12.23;;;;;;;11.58;100.00;100950.34;5056529;28;20526;-46
2023/07/04 00:38:36;;;;;;;40.60;12.48;;;;;;;11.50;100.00;100946.66;5055755;28;20035;-48
2023/07/04 00:41:06;;;;;;;40.38;11.95;;;;;;;11.49;100.00;100948.38;5056607;28;20036;-48
2023/07/04 00:44:07;;;;;;;48.03;11.82;;;;;;;11.45;100.00;100954.28;5056094;28;20028;-48
2023/07/04 00:46:39;;;;;;;46.50;11.75;;;;;;;11.33;100.00;100944.47;5055640;28;20075;-47
2023/07/04 00:49:18;;;;;;;48.45;12.27;;;;;;;11.55;100.00;100946.78;5056472;28;20021;-48
2023/07/04 00:52:22;;;;;;;52.10;12.52;;;;;;;11.57;100.00;100937.38;5055930;28;20029;-47
2023/07/04 00:54:52;;;;;;;44.63;11.98;;;;;;;11.49;100.00;100937.16;5045018;28;20038;-48
2023/07/04 00:57:22;;;;;;;56.22;11.98;;;;;;;11.78;100.00;100944.81;5056314;28;20483;-48
2023/07/04 00:59:52;;;;;;;57.88;12.05;;;;;;;11.84;100.00;100940.69;5055076;28;20461;-46
2023/07/04 01:02:24;;;;;;;58.65;12.07;;;;;;;11.93;100.00;100945.22;5055949;28;20539;-48
2023/07/04 01:04:51;;;;;;;61.17;12.32;;;;;;;12.17;100.00;100947.59;5056011;28;20051;-49
2023/07/04 01:07:45;;;;;;;57.80;12.32;;;;;;;12.29;100.00;100946.13;5055220;28;20025;-47
2023/07/04 01:10:32;;;;;;;67.88;12.10;;;;;;;12.42;100.00;100948.19;5056095;28;20029;-46
2023/07/04 01:12:58;;;;;;;62.55;11.18;;;;;;;12.60;100.00;100936.50;5056128;28;20014;-45
2023/07/04 01:15:24;;;;;;;58.40;12.25;;;;;;;12.71;100.00;100940.19;5054833;28;20369;-48
2023/07/04 01:17:51;;;;;;;52.72;11.75;;;;;;;12.83;100.00;100940.47;5056009;28;20040;-47
2023/07/04 01:20:17;;;;;;;58.30;11.37;;;;;;;12.92;100.00;100950.13;5055998;28;20027;-48
2023/07/04 01:22:51;;;;;;;49.25;10.60;;;;;;;12.85;100.00;100943.97;5054462;28;20303;-47
2023/07/04 01:25:35;;;;;;;56.47;11.15;;;;;;;12.99;100.00;100940.81;5055667;28;20029;-48
2023/07/04 01:28:02;;;;;;;54.58;11.82;;;;;;;13.05;100.00;100945.22;5055178;28;20033;-46
2023/07/04 01:30:31;;;;;;;49.70;10.73;;;;;;;13.10;100.00;100960.00;5055448;28;20079;-48
2023/07/04 01:32:57;;;;;;;43.25;10.13;;;;;;;13.11;100.00;100954.00;5055451;28;20028;-46
2023/07/04 01:35:23;;;;;;;61.10;12.73;;;;;;;13.10;100.00;100949.66;5054415;28;20025;-48
2023/07/04 01:37:49;;;;;;;57.88;11.02;;;;;;;13.13;100.00;100947.16;5055357;28;20470;-47
2023/07/04 01:40:15;;;;;;;45.85;10.55;;;;;;;13.14;100.00;100948.91;5055525;28;20036;-48
2023/07/04 01:42:41;;;;;;;50.88;10.25;;;;;;;13.15;100.00;100947.16;5053835;28;20488;-48
2023/07/04 01:45:08;;;;;;;48.65;10.88;;;;;;;13.18;100.00;100947.22;5055149;28;20441;-47
2023/07/04 01:47:35;;;;;;;52.92;11.10;;;;;;;13.20;100.00;100944.69;5055013;28;20055;-48
2023/07/04 01:50:02;;;;;;;49.75;11.57;;;;;;;13.26;100.00;100949.97;5054492;28;20025;-49
2023/07/04 01:52:28;;;;;;;36.17;9.98;;;;;;;13.27;100.00;100944.84;5054979;28;20033;-48
2023/07/04 01:54:54;;;;;;;44.85;10.35;;;;;;;13.35;100.00;100937.22;5055267;28;20140;-46
2023/07/04 01:57:20;;;;;;;45.45;9.73;;;;;;;13.39;100.00;100941.66;5054437;28;20017;-46
2023/07/04 01:59:45;;;;;;;44.72;9.80;;;;;;;13.48;100.00;100962.53;5054967;28;20029;-46
2023/07/04 02:02:11;;;;;;;36.20;9.55;;;;;;;13.50;100.00;100960.88;5055126;28;20529;-49
2023/07/04 02:04:36;;;;;;;37.60;9.80;;;;;;;13.52;100.00;100962.59;5053789;28;20034;-49
2023/07/04 02:07:01;;;;;;;47.70;10.32;;;;;;;13.53;100.00;100964.34;5055052;28;20021;-46
2023/07/04 02:09:27;;;;;;;39.63;9.77;;;;;;;13.50;100.00;100958.28;5054757;28;20354;-48
2023/07/04 02:11:52;;;;;;;40.95;9.80;;;;;;;13.39;100.00;100952.00;5054269;28;20116;-48
2023/07/04 02:14:17;;;;;;;33.60;8.85;;;;;;;13.30;100.00;100944.03;5054975;28;20071;-48
2023/07/04 02:16:44;;;;;;;32.90;8.05;;;;;;;13.22;100.00;100948.16;5053712;28;20068;-48
2023/07/04 02:19:10;;;;;;;48.30;10.43;;;;;;;13.17;100.00;100945.50;5054767;28;20017;-48
2023/07/04 02:21:35;;;;;;;48.70;10.95;;;;;;;13.10;100.00;100949.66;5054490;28;20372;-48
2023/07/04 02:24:02;;;;;;;45.10;10.50;;;;;;;13.07;100.00;100956.50;5053651;28;20053;-49
2023/07/04 02:26:27;;;;;;;38.40;10.90;;;;;;;12.98;100.00;100939.06;5054251;28;20377;-47
2023/07/04 02:28:53;;;;;;;41.80;11.65;;;;;;;12.99;100.00;100958.94;5054642;28;20487;-50
2023/07/04 02:31:18;;;;;;;42.58;12.30;;;;;;;12.97;100.00;100958.00;5053923;28;20032;-50
2023/07/04 02:33:44;;;;;;;41.90;12.52;;;;;;;12.85;100.00;100962.06;5054130;28;20147;-48
2023/07/04 02:36:11;;;;;;;44.38;12.48;;;;;;;12.83;100.00;100958.59;5054290;28;20021;-48
2023/07/04 02:38:39;;;;;;;40.90;12.88;;;;;;;12.84;100.00;100970.66;5053233;28;20415;-47
2023/07/04 02:41:05;;;;;;;37.35;12.98;;;;;;;12.78;100.00;100962.78;5054414;28;20036;-48
2023/07/04 02:43:30;;;;;;;44.00;12.93;;;;;;;12.77;100.00;100961.03;5053730;28;20480;-48
2023/07/04 02:45:55;;;;;;;47.83;13.77;;;;;;;12.76;100.00;100955.84;5053350;28;20108;-48
2023/07/04 02:48:21;;;;;;;36.08;12.55;;;;;;;12.72;100.00;100960.06;5054085;28;20020;-46
2023/07/04 02:50:46;;;;;;;38.45;13.20;;;;;;;12.72;100.00;100947.13;5053715;28;20017;-47
2023/07/04 02:53:12;;;;;;;43.60;13.05;;;;;;;12.74;100.00;100950.59;5053482;28;20025;-47
2023/07/04 02:55:37;;;;;;;38.75;13.10;;;;;;;12.73;100.00;100943.72;5052943;28;20108;-47
2023/07/04 02:58:02;;;;;;;33.95;12.43;;;;;;;12.71;100.00;100937.63;5053942;28;20067;-47
2023/07/04 03:00:28;;;;;;;31.75;10.02;;;;;;;12.71;100.00;100934.16;5052824;28;20025;-48
2023/07/04 03:02:53;;;;;;;38.33;10.30;;;;;;;12.68;100.00;100947.91;5053739;28;20135;-46
2023/07/04 03:05:19;;;;;;;31.25;9.10;;;;;;;12.66;100.00;100941.81;5053675;28;20069;-48
2023/07/04 03:07:44;;;;;;;36.05;9.68;;;;;;;12.63;100.00;100941.75;5052658;28;20021;-47
2023/07/04 03:10:09;;;;;;;29.33;9.13;;;;;;;12.63;100.00;100946.94;5053603;28;20036;-49
2023/07/04 03:12:35;;;;;;;32.60;10.25;;;;;;;12.63;100.00;100944.34;5053399;28;20029;-48
2023/07/04 03:15:00;;;;;;;26.30;9.05;;;;;;;12.62;100.00;100947.75;5053036;28;20416;-48
2023/07/04 03:17:26;;;;;;;37.45;10.25;;;;;;;12.63;100.00;100952.09;5053459;28;20111;-47
2023/07/04 03:19:51;;;;;;;32.50;9.85;;;;;;;12.61;100.00;100948.59;5053476;28;20045;-48
2023/07/04 03:22:18;;;;;;;35.78;10.10;;;;;;;12.62;100.00;100955.50;5052413;28;20041;-48
2023/07/04 03:24:44;;;;;;;36.92;10.13;;;;;;;12.63;100.00;100949.50;5053146;28;20054;-48
2023/07/04 03:27:09;;;;;;;39.83;10.48;;;;;;;12.64;100.00;100953.81;5052694;28;20020;-48
2023/07/04 03:29:35;;;;;;;29.35;9.48;;;;;;;12.61;100.00;100946.00;5053183;28;20021;-49
2023/07/04 03:32:00;;;;;;;28.15;9.07;;;;;;;12.56;100.00;100950.19;5053326;28;20044;-49
2023/07/04 03:34:25;;;;;;;26.90;8.25;;;;;;;12.53;100.00;100951.00;5051989;28;20249;-47
2023/07/04 03:36:51;;;;;;;29.70;8.85;;;;;;;12.46;100.00;100955.16;5053177;28;20061;-43
2023/07/04 03:39:16;;;;;;;25.80;8.43;;;;;;;12.41;100.00;100967.09;5053358;28;20032;-48
2023/07/04 03:41:42;;;;;;;25.70;7.53;;;;;;;12.35;100.00;100956.59;5052113;28;20036;-46
2023/07/04 03:44:07;;;;;;;30.58;9.43;;;;;;;12.25;100.00;100959.81;5053204;28;20069;-48
2023/07/04 03:46:32;;;;;;;27.80;8.75;;;;;;;12.24;100.00;100956.34;5052795;28;20053;-48
2023/07/04 03:48:58;;;;;;;25.17;7.95;;;;;;;12.23;100.00;100969.25;5052227;28;20074;-47
2023/07/04 03:51:24;;;;;;;24.20;8.07;;;;;;;12.15;100.00;100962.16;5052852;28;20033;-45
2023/07/04 03:53:49;;;;;;;28.17;8.70;;;;;;;12.13;100.00;100966.41;5053091;28;20143;-43
2023/07/04 03:56:15;;;;;;;27.92;8.63;;;;;;;12.08;100.00;100968.00;5052265;28;20486;-46
2023/07/04 03:58:41;;;;;;;21.90;8.23;;;;;;;12.06;100.00;100969.69;5052553;28;20452;-48
2023/07/04 04:01:06;;;;;;;26.33;6.88;;;;;;;12.04;100.00;100967.91;5053010;28;20473;-45
2023/07/04 04:03:37;;;;;;;26.70;8.07;;;;;;;12.07;100.00;100966.28;5051623;28;20036;-47
2023/07/04 04:06:05;;;;;;;25.55;7.97;;;;;;;12.09;100.00;100961.16;5052950;28;20025;-48
2023/07/04 04:08:30;;;;;;;26.20;8.15;;;;;;;12.08;100.00;100968.00;5052687;28;20032;-47
2023/07/04 04:10:55;;;;;;;29.58;8.77;;;;;;;12.11;100.00;100975.84;5052257;28;20021;-47
2023/07/04 04:13:21;;;;;;;31.60;9.38;;;;;;;12.09;100.00;100974.91;5052797;28;20025;-45
2023/07/04 04:15:46;;;;;;;30.67;9.93;;;;;;;12.08;100.00;100975.75;5052547;28;20049;-43
2023/07/04 04:18:11;;;;;;;32.72;10.43;;;;;;;12.15;100.00;100975.09;5051896;28;20029;-43
2023/07/04 04:20:36;;;;;;;31.92;9.65;;;;;;;12.18;100.00;100980.31;5052652;28;20021;-46
2023/07/04 04:23:02;;;;;;;33.42;9.50;;;;;;;12.23;100.00;100977.84;5052649;28;20132;-45
2023/07/04 04:25:27;;;;;;;41.90;10.48;;;;;;;12.31;100.00;100970.28;5051714;28;20021;-44
2023/07/04 04:27:52;;;;;;;33.47;10.00;;;;;;;12.39;100.00;100973.06;5052720;28;20047;-45
2023/07/04 04:30:18;;;;;;;26.77;9.18;;;;;;;12.42;100.00;100979.19;5052205;28;20407;-46
2023/07/04 04:32:44;;;;;;;39.78;9.55;;;;;;;12.48;100.00;100975.88;5052036;28;20033;-44
2023/07/04 04:35:11;;;;;;;35.05;9.98;;;;;;;12.56;100.00;100976.91;5052769;28;20020;-44
2023/07/04 04:37:36;;;;;;;29.63;8.88;;;;;;;12.63;100.00;100988.28;5051757;28;20021;-45
2023/07/04 04:40:04;;;;;;;38.90;9.82;;;;;;;12.70;100.00;100991.88;5052676;28;20029;-46
2023/07/04 04:42:34;;;;;;;;;;;;;;;12.75;100.00;100993.72;5052737;28;20071;-44
2023/07/04 04:45:00;;;;;;;39.50;9.65;;;;;;;12.78;100.00;100988.66;5051797;28;19956;-44
2023/07/04 04:47:25;;;;;;;34.88;9.10;;;;;;;12.76;100.00;100989.47;5052182;28;20060;-46
2023/07/04 04:49:51;;;;;;;31.30;9.40;;;;;;;12.77;100.00;100994.66;5052555;28;20096;-45
2023/07/04 04:52:21;;;;;;;34.22;9.30;;;;;;;12.75;100.00;100993.72;5051863;28;20021;-45
2023/07/04 04:54:47;;;;;;;31.80;9.07;;;;;;;12.76;100.00;100992.91;5052415;28;20025;-42
2023/07/04 04:57:14;;;;;;;31.23;9.60;;;;;;;12.76;100.00;100995.50;5052495;28;20021;-44
2023/07/04 04:59:40;;;;;;;35.45;9.15;;;;;;;12.81;100.00;101003.38;5051293;28;20021;-44
2023/07/04 05:02:05;;;;;;;31.25;9.10;;;;;;;12.83;100.00;100996.50;5052344;28;20067;-45
2023/07/04 05:04:30;;;;;;;31.73;9.20;;;;;;;12.85;100.00;100993.09;5052098;28;20374;-43
2023/07/04 05:06:56;;;;;;;36.42;9.38;;;;;;;12.89;100.00;101001.81;5051514;28;20033;-46
2023/07/04 05:09:21;;;;;;;38.47;9.20;;;;;;;12.91;100.00;101001.84;5052088;28;20028;-45
2023/07/04 05:11:47;;;;;;;28.08;8.82;;;;;;;12.96;100.00;100997.66;5051864;28;20098;-45
2023/07/04 05:14:13;;;;;;;31.75;8.73;;;;;;;12.96;100.00;100998.53;5051349;28;20031;-44
2023/07/04 05:16:38;;;;;;;26.70;8.52;;;;;;;12.98;100.00;100995.97;5051756;28;20029;-45
2023/07/04 05:19:04;;;;;;;30.70;8.90;;;;;;;12.97;100.00;101000.25;5055227;28;20036;-46
2023/07/04 05:21:29;;;;;;;40.15;9.38;;;;;;;13.00;100.00;101007.22;5054715;28;20020;-46
2023/07/04 05:23:54;;;;;;;36.97;9.73;;;;;;;13.01;100.00;101006.38;5055491;28;20388;-43
2023/07/04 05:26:25;;;;;;;44.42;9.43;;;;;;;13.05;100.00;101008.19;5055665;28;20495;-43
2023/07/04 05:28:52;;;;;;;31.50;9.20;;;;;;;13.10;100.00;101006.56;5054802;28;20521;-43
2023/07/04 05:31:21;;;;;;;32.80;9.37;;;;;;;13.16;100.00;101009.31;5055717;28;20036;-44
2023/07/04 05:33:46;;;;;;;36.83;10.15;;;;;;;13.26;100.00;101014.66;5054625;28;20107;-46
2023/07/04 05:36:15;;;;;;;36.88;9.35;;;;;;;13.30;100.00;101013.91;5055494;28;20109;-44
2023/07/04 05:38:41;;;;;;;39.55;9.98;;;;;;;13.37;100.00;101010.63;5055105;28;20025;-47
2023/07/04 05:41:12;;;;;;;29.75;9.52;;;;;;;13.42;100.00;101019.38;5054726;28;20029;-44
2023/07/04 05:43:38;;;;;;;36.03;9.13;;;;;;;13.49;100.00;101020.34;5055071;28;20095;-43
2023/07/04 05:46:04;;;;;;;34.05;8.65;;;;;;;13.54;100.00;101012.69;5055219;28;20053;-43
2023/07/04 05:48:29;;;;;;;32.92;8.75;;;;;;;13.58;100.00;101019.69;5054382;28;20063;-44
2023/07/04 05:51:00;;;;;;;33.90;8.63;;;;;;;13.65;100.00;101026.75;5055242;28;20021;-43
2023/07/04 05:53:28;;;;;;;30.05;8.18;;;;;;;13.70;100.00;101019.94;5054972;28;20091;-43
2023/07/04 05:56:04;;;;;;;;;;;;;;;13.79;100.00;101014.06;5054777;28;20095;-47
2023/07/04 05:58:30;;;;;;;29.53;8.17;;;;;;;13.90;100.00;101022.03;5054774;28;19912;-44
2023/07/04 06:00:59;;;;;;;31.27;8.20;;;;;;;13.95;100.00;101016.06;5054927;28;20056;-42
2023/07/04 06:03:26;;;;;;;27.92;7.75;;;;;;;13.98;100.00;101017.84;5056641;28;20537;-44
2023/07/04 06:05:51;;;;;;;22.73;6.95;;;;;;;13.91;100.00;101010.81;5072890;28;20137;-43
2023/07/04 06:08:17;;;;;;;27.38;7.38;;;;;;;13.93;100.00;101012.59;5074211;28;20034;-44
2023/07/04 06:10:42;;;;;;;31.85;7.10;;;;;;;13.95;100.00;101020.41;5073625;28;20602;-45
2023/07/04 06:13:07;;;;;;;28.88;7.05;;;;;;;14.00;100.00;101029.13;5073977;28;20036;-44
2023/07/04 06:15:40;;;;;;;33.40;6.88;;;;;;;14.10;100.00;101036.22;5073851;28;20443;-43
2023/07/04 06:18:06;;;;;;;26.80;6.60;;;;;;;14.16;100.00;101030.25;5074113;28;20042;-43
2023/07/04 06:20:31;;;;;;;26.58;6.80;;;;;;;14.24;100.00;101033.00;5074491;28;20396;-47
2023/07/04 06:22:56;;;;;;;31.73;7.05;;;;;;;14.31;100.00;101040.03;5073616;28;20083;-44
2023/07/04 06:25:22;;;;;;;27.30;7.07;;;;;;;14.41;100.00;101041.94;5074481;28;20444;-43
2023/07/04 06:27:47;;;;;;;27.80;6.43;;;;;;;14.47;100.00;101038.56;5074652;28;20021;-44
2023/07/04 06:30:12;;;;;;;30.83;6.55;;;;;;;14.55;100.00;101049.97;5072394;28;20025;-44
2023/07/04 06:32:38;;;;;;;23.27;6.55;;;;;;;14.61;100.00;101044.84;5074204;28;20036;-43
2023/07/04 06:35:04;;;;;;;27.30;6.47;;;;;;;14.72;100.00;101049.38;5074328;28;20021;-44
2023/07/04 06:37:29;;;;;;;29.70;7.57;;;;;;;14.79;100.00;101044.31;5073265;28;20373;-43
2023/07/04 06:39:55;;;;;;;29.33;6.93;;;;;;;14.93;100.00;101046.25;5074115;28;20507;-42
2023/07/04 06:42:20;;;;;;;26.42;6.45;;;;;;;15.06;100.00;101048.16;5074297;28;20039;-44
2023/07/04 06:44:45;;;;;;;25.50;5.63;;;;;;;15.19;100.00;101059.59;5073021;28;20067;-44
2023/07/04 06:47:11;;;;;;;28.08;6.43;;;;;;;15.28;100.00;101064.03;5074018;28;20025;-44
2023/07/04 06:49:36;;;;;;;24.73;6.55;;;;;;;15.24;100.00;101057.06;5073725;28;20060;-44
2023/07/04 06:52:02;;;;;;;32.10;6.95;;;;;;;15.37;100.00;101061.56;5073265;28;20476;-45
2023/07/04 06:54:27;;;;;;;24.65;6.30;;;;;;;15.41;100.00;101059.88;5073603;28;20120;-43
2023/07/04 06:56:52;;;;;;;23.30;6.60;;;;;;;15.46;100.00;101066.88;5074143;28;20052;-43
2023/07/04 06:59:18;;;;;;;22.27;6.65;;;;;;;15.64;100.00;101065.38;5073321;28;20381;-46
2023/07/04 07:01:43;;;;;;;26.38;6.50;;;;;;;15.75;100.00;101071.59;5073666;28;20100;-45
2023/07/04 07:04:08;;;;;;;18.60;5.95;;;;;;;15.80;100.00;101080.31;5073906;28;20036;-42
2023/07/04 07:06:34;;;;;;;21.13;6.60;;;;;;;15.73;95.31;101077.63;5072793;28;20451;-42
2023/07/04 07:09:00;;;;;;;22.23;6.70;;;;;;;15.64;94.47;101078.38;5073511;28;20031;-43
2023/07/04 07:11:26;;;;;;;20.58;6.18;;;;;;;15.64;94.11;101078.38;5073582;28;20028;-42
2023/07/04 07:13:51;;;;;;;21.85;5.90;;;;;;;15.78;94.83;101082.00;5073039;28;20025;-44
2023/07/04 07:16:21;;;;;;;19.38;5.63;;;;;;;15.86;96.28;101089.06;5073571;28;20423;-43
2023/07/04 07:18:50;;;;;;;18.63;5.40;;;;;;;15.66;92.28;101083.56;5073175;28;20398;-48
2023/07/04 07:21:19;;;;;;;22.10;6.05;;;;;;;15.76;94.88;101073.34;5072551;28;20495;-45
2023/07/04 07:23:46;;;;;;;22.75;5.93;;;;;;;15.95;93.73;101078.75;5072805;28;20040;-49
2023/07/04 07:26:14;;;;;;;21.27;6.00;;;;;;;16.15;93.10;101075.50;5072559;28;20066;-43
2023/07/04 07:28:40;;;;;;;22.20;6.05;;;;;;;16.18;89.50;101084.22;5072991;28;20070;-43
2023/07/04 07:31:07;;;;;;;20.67;5.70;;;;;;;16.18;88.29;101097.22;5073399;28;20029;-48
2023/07/04 07:33:34;;;;;;;20.52;6.47;;;;;;;16.22;88.79;101095.53;5072042;28;20381;-44
2023/07/04 07:36:08;;;;;;;19.48;5.55;;;;;;;16.38;89.03;101086.97;5073315;28;20020;-46
2023/07/04 07:38:34;;;;;;;16.45;4.90;;;;;;;16.52;88.98;101091.47;5072721;28;20479;-44
2023/07/04 07:40:59;;;;;;;16.75;5.43;;;;;;;16.55;88.06;101088.88;5071941;28;20056;-44
2023/07/04 07:43:24;;;;;;;22.17;5.22;;;;;;;16.69;86.59;101092.47;5072789;28;20086;-46
2023/07/04 07:45:49;;;;;;;17.70;5.07;;;;;;;16.56;83.52;101086.28;5073054;28;20104;-45
2023/07/04 07:48:17;;;;;;;15.75;4.40;;;;;;;16.36;81.87;101098.22;5072295;28;20031;-43
2023/07/04 07:50:42;;;;;;;14.65;4.60;;;;;;;16.20;82.66;101105.03;5072727;28;20767;-45
2023/07/04 07:53:08;;;;;;;19.08;4.93;;;;;;;16.21;82.40;101101.56;5073116;28;20133;-47
2023/07/04 07:55:33;;;;;;;13.15;4.28;;;;;;;16.38;83.21;101110.41;5071713;28;20029;-46
2023/07/04 07:57:58;;;;;;;15.52;4.60;;;;;;;16.55;80.93;101107.97;5073043;28;20020;-44
2023/07/04 08:00:24;;;;;;;14.77;4.22;;;;;;;16.74;80.91;101100.31;5072580;28;20025;-42
2023/07/04 08:02:49;;;;;;;41.60;14.32;;;;;;;16.99;82.61;101098.81;5056019;28;20060;-46
2023/07/04 08:05:14;;;;;;;13.70;4.32;;;;;;;17.13;80.99;101105.84;5049703;28;20062;-43
2023/07/04 08:07:40;;;;;;;14.60;4.50;;;;;;;17.14;79.16;101102.38;5050234;28;20078;-43
2023/07/04 08:10:05;;;;;;;17.10;4.68;;;;;;;17.14;79.92;101098.03;5049611;28;20396;-43
2023/07/04 08:12:33;;;;;;;22.60;5.22;;;;;;;17.28;79.55;101101.59;5050727;28;20060;-42
2023/07/04 08:14:58;;;;;;;19.95;5.07;;;;;;;17.43;77.86;101118.19;5050362;28;20167;-45
2023/07/04 08:17:24;;;;;;;15.48;4.50;;;;;;;17.38;76.64;101112.09;5051666;28;20540;-42
2023/07/04 08:19:49;;;;;;;16.70;4.25;;;;;;;17.07;72.38;101106.69;5052623;28;20070;-47
2023/07/04 08:22:15;;;;;;;17.33;4.20;;;;;;;17.06;72.65;101112.75;5052516;28;20032;-42
2023/07/04 08:24:40;;;;;;;16.30;3.83;;;;;;;17.07;74.75;101123.16;5051739;28;20025;-42
2023/07/04 08:27:05;;;;;;;14.07;3.67;;;;;;;17.07;69.94;101117.97;5052695;28;20029;-46
2023/07/04 08:29:31;;;;;;;15.10;3.78;;;;;;;16.98;71.44;101117.91;5051604;28;20461;-42
2023/07/04 08:31:57;;;;;;;18.23;3.90;;;;;;;16.93;72.09;101124.81;5052386;28;20033;-48
2023/07/04 08:34:23;;;;;;;15.60;4.18;;;;;;;17.13;71.49;101111.06;5052154;28;20218;-43
2023/07/04 08:36:48;;;;;;;14.60;3.75;;;;;;;17.39;72.54;101104.28;5051611;28;20116;-44
2023/07/04 08:39:13;;;;;;;13.75;4.03;;;;;;;17.49;71.78;101094.75;5052608;28;20126;-43
2023/07/04 08:41:44;;;;;;;14.13;3.47;;;;;;;17.66;71.73;101104.41;5052226;28;20045;-46
2023/07/04 08:44:19;;;;;;;12.20;3.65;;;;;;;17.74;68.31;101100.97;5051776;28;20466;-43
2023/07/04 08:46:48;;;;;;;14.88;4.53;;;;;;;17.85;66.92;101092.31;5052063;28;20021;-49
2023/07/04 08:49:38;;;;;;;19.42;3.78;;;;;;;17.98;68.93;101101.94;5052329;28;20350;-47
2023/07/04 08:52:27;;;;;;;15.82;3.83;;;;;;;18.31;68.25;101105.50;5051877;28;20064;-46
2023/07/04 08:54:54;;;;;;;12.32;2.75;;;;;;;18.56;62.24;101116.81;5056485;28;20061;-49
2023/07/04 08:57:37;;;;;;;15.80;3.10;;;;;;;18.50;59.46;101115.97;5056175;28;20055;-44
2023/07/04 09:00:14;;;;;;;17.83;3.55;;;;;;;18.45;57.83;101109.84;5056102;28;20073;-45
2023/07/04 09:02:57;;;;;;;9.50;2.93;;;;;;;18.52;57.73;101111.63;5055710;28;20052;-43
2023/07/04 09:05:42;;;;;;;13.38;3.00;;;;;;;18.68;57.53;101128.16;5055047;28;20275;-44
2023/07/04 09:08:29;;;;;;;13.13;3.75;;;;;;;18.74;57.26;101122.94;5056178;28;20163;-44
2023/07/04 09:11:06;;;;;;;12.82;3.03;;;;;;;19.19;59.07;101130.78;5056196;28;20029;-44
2023/07/04 09:13:36;;;;;;;19.73;4.47;;;;;;;19.15;54.99;101132.53;5055003;28;20025;-45
2023/07/04 09:16:07;;;;;;;17.00;3.17;;;;;;;19.07;54.54;101134.28;5055940;28;20028;-47
2023/07/04 09:18:55;;;;;;;22.33;4.47;;;;;;;18.99;55.00;101139.53;5055453;28;20511;-45
2023/07/04 09:21:22;;;;;;;13.95;3.22;;;;;;;18.98;54.50;101137.78;5055863;28;20029;-43
2023/07/04 09:23:50;;;;;;;10.85;3.10;;;;;;;18.87;55.46;101135.13;5055486;28;20045;-46
2023/07/04 09:26:19;;;;;;;13.20;3.40;;;;;;;18.96;55.97;101134.28;5053422;28;20032;-48
2023/07/04 09:28:47;;;;;;;15.20;3.30;;;;;;;19.22;55.20;101143.84;5053414;28;20037;-48
2023/07/04 09:31:18;;;;;;;12.55;3.58;;;;;;;19.68;55.73;101140.25;5055817;28;20020;-44
2023/07/04 09:33:47;;;;;;;13.25;3.10;;;;;;;19.65;50.96;101141.13;5054581;28;20477;-43
2023/07/04 09:36:15;;;;;;;13.98;3.13;;;;;;;19.64;52.87;101146.34;5052952;28;20156;-46
2023/07/04 09:39:09;;;;;;;;;;;;;;;19.94;54.12;101157.63;5054801;28;20079;-49
2023/07/04 09:41:39;;;;;;;14.57;3.50;;;;;;;20.05;52.20;101161.91;5053646;28;20353;-44
2023/07/04 09:44:12;;;;;;;11.90;2.95;;;;;;;19.82;48.29;101154.16;5053202;28;20040;-43
2023/07/04 09:46:38;;;;;;;13.00;2.90;;;;;;;20.29;51.42;101160.03;5054868;28;20377;-47
2023/07/04 09:49:23;;;;;;;14.48;3.20;;;;;;;20.06;51.38;101153.19;5054566;28;20025;-44
2023/07/04 09:52:24;;;;;;;14.77;3.33;;;;;;;19.83;52.28;101166.38;5055165;28;20381;-46
2023/07/04 09:55:08;;;;;;;11.60;3.47;;;;;;;19.97;50.48;101154.97;5048779;28;20036;-42
2023/07/04 09:57:33;;;;;;;11.43;3.17;;;;;;;19.74;48.82;101150.66;5053623;28;20493;-48
2023/07/04 10:00:15;;;;;;;14.45;3.38;;;;;;;19.84;48.68;101162.00;5054318;28;20035;-43
2023/07/04 10:02:42;;;;;;;12.65;3.20;;;;;;;19.89;50.25;101157.63;5052847;28;20115;-46
2023/07/04 10:05:09;;;;;;;14.88;3.95;;;;;;;20.32;49.87;101149.56;5053056;28;20025;-43
2023/07/04 10:07:35;;;;;;;16.65;3.72;;;;;;;20.56;48.43;101153.75;5054517;28;20029;-43
2023/07/04 10:10:08;;;;;;;13.82;3.85;;;;;;;20.73;47.68;101152.81;5054092;28;20025;-43
2023/07/04 10:12:45;;;;;;;12.20;3.95;;;;;;;21.08;48.27;101156.00;5037704;28;20372;-43
2023/07/04 10:15:23;;;;;;;12.43;4.05;;;;;;;20.91;49.17;101151.78;5043241;28;20120;-42
2023/07/04 10:17:48;;;;;;;14.93;4.28;;;;;;;20.91;46.46;101149.16;5051753;28;20033;-43
2023/07/04 10:20:14;;;;;;;10.57;3.80;;;;;;;20.81;44.75;101152.75;5052841;28;20025;-48
2023/07/04 10:22:51;;;;;;;9.55;3.28;;;;;;;20.94;44.79;101158.75;5051351;28;20041;-44
2023/07/04 10:25:18;;;;;;;;;;;;;;;21.20;45.56;101155.88;5054725;28;20051;-43
2023/07/04 10:27:57;;;;;;;14.57;3.70;;;;;;;21.63;44.25;101159.84;5054224;28;19913;-43
2023/07/04 10:30:29;;;;;;;13.18;3.92;;;;;;;21.82;42.38;101160.50;5053190;28;20477;-44
2023/07/04 10:33:00;;;;;;;10.88;2.83;;;;;;;22.09;41.73;101155.78;5054498;28;20100;-43
2023/07/04 10:35:30;;;;;;;11.77;2.83;;;;;;;23.39;42.73;101156.41;5054009;28;20437;-49
2023/07/04 10:38:01;;;;;;;16.67;3.20;;;;;;;23.42;40.92;101146.69;5053670;28;20048;-44
2023/07/04 10:40:27;;;;;;;12.80;3.65;;;;;;;23.53;39.64;101159.63;5052881;28;20370;-43
2023/07/04 10:43:03;;;;;;;13.27;2.90;;;;;;;23.57;38.80;101150.78;5052492;28;20033;-47
2023/07/04 10:45:30;;;;;;;14.20;3.60;;;;;;;24.21;37.36;101158.25;5053399;28;20029;-47
2023/07/04 10:48:01;;;;;;;13.70;3.58;;;;;;;24.24;37.72;101168.72;5052882;28;20035;-44
2023/07/04 10:50:32;;;;;;;9.80;3.15;;;;;;;23.83;37.83;101162.53;5053176;28;20141;-44
2023/07/04 10:52:57;;;;;;;11.40;3.00;;;;;;;23.33;38.24;101158.25;5054163;28;20445;-44
2023/07/04 10:55:48;;;;;;;10.85;2.83;;;;;;;23.12;42.01;101161.22;5053750;28;20496;-45
2023/07/04 10:58:21;;;;;;;12.52;3.15;;;;;;;22.92;39.68;101162.44;5053395;28;20021;-46
2023/07/04 11:00:57;;;;;;;14.70;2.80;;;;;;;23.08;40.51;101162.19;5053799;28;20033;-44
2023/07/04 11:03:39;;;;;;;10.10;3.08;;;;;;;23.17;40.04;101167.31;5053862;28;20039;-44
2023/07/04 11:06:12;;;;;;;14.40;3.42;;;;;;;22.67;39.89;101156.72;5053112;28;20029;-49
2023/07/04 11:08:39;;;;;;;15.13;3.53;;;;;;;22.17;41.32;101167.06;5053597;28;20021;-49
2023/07/04 11:11:13;;;;;;;13.02;2.97;;;;;;;21.76;42.00;101166.69;5053945;28;20096;-47
2023/07/04 11:13:49;;;;;;;10.77;3.30;;;;;;;22.12;42.36;101161.00;5053374;28;20473;-43
2023/07/04 11:16:17;;;;;;;10.07;3.08;;;;;;;22.23;40.59;101159.06;5052896;28;20090;-47
2023/07/04 11:18:44;;;;;;;11.60;2.95;;;;;;;22.26;39.86;101158.16;5052492;28;20055;-44